Ms Chievous — WCY8284 — position and weather

sailwx.info

Track history (hours):
 
Tides and Currents Weather Stations Pressure Air Temp Water Temp Dewpoint Dewpoint Depression Visibility Wind Speed Wind Dir Waves Ship Positions

Ms Chievous

Owner: AUBUCHON, JAMES P, Seattle, WA. More information available from US FCC via Universal Licensing System.

Last reported at 2017-Oct-31 22:12 UTC. Time now 2017-Nov-19 12:44 UTC.
Position N 48°31' W 122°45'.
Warning: this ship's position is 18 days out of date.

Type: Sailing vessel. MMSI: 366760040.

Date/timePositionNaut miles runAvg speedWind from/ knotsBaromVisibWave heightAir tempDewpointWater temp
2017-Oct-31 22:12N 48°31' W 122°45'1 6.8
2017-Oct-31 22:00N 48°32' W 122°47'3 6.4
2017-Oct-31 21:30N 48°33' W 122°51'3 5.1
2017-Oct-31 21:00N 48°34' W 122°54'3 5.9
2017-Oct-31 20:30N 48°33' W 122°58'2 0.0
2017-Oct-29 22:38N 48°32' W 123°01'0 0.0
2017-Oct-29 22:26N 48°32' W 123°01'2 3.6
2017-Oct-29 21:49N 48°35' W 123°01'0 1.2
2017-Oct-29 21:24N 48°34' W 123°01'1 2.1
2017-Oct-29 21:00N 48°34' W 123°00'1 1.5
2017-Oct-29 20:30N 48°33' W 123°00'1 1.2
2017-Oct-29 19:55N 48°32' W 123°01'0 0.0
2017-Oct-29 19:28N 48°32' W 123°01'0 0.0
2017-Oct-29 18:49N 48°32' W 123°01'0 0.0
2017-Oct-29 18:28N 48°32' W 123°01'0 0.2
2017-Oct-29 17:55N 48°32' W 123°01'2 3.7
2017-Oct-29 17:30N 48°33' W 122°59'3 6.1
2017-Oct-29 16:58N 48°34' W 122°54'2 4.9
2017-Oct-29 16:30N 48°33' W 122°51'  
Track history (hours):
 
Tides and Currents Weather Stations Pressure Air Temp Water Temp Dewpoint Dewpoint Depression Visibility Wind Speed Wind Dir Waves Ship Positions

Ms Chievous

Owner: AUBUCHON, JAMES P, Seattle, WA. More information available from US FCC via Universal Licensing System.

Last reported at 2017-Oct-31 22:12 UTC. Time now 2017-Nov-19 12:44 UTC.
Position N 48°31' W 122°45'.
Warning: this ship's position is 18 days out of date.

Type: Sailing vessel. MMSI: 366760040.

Date/timePositionNaut miles runAvg speedWind from/ knotsBaromVisibWave heightAir tempDewpointWater temp
2017-Oct-31 22:12N 48°31' W 122°45'1 6.8
2017-Oct-31 22:00N 48°32' W 122°47'3 6.4
2017-Oct-31 21:30N 48°33' W 122°51'3 5.1
2017-Oct-31 21:00N 48°34' W 122°54'3 5.9
2017-Oct-31 20:30N 48°33' W 122°58'2 0.0
2017-Oct-29 22:38N 48°32' W 123°01'0 0.0
2017-Oct-29 22:26N 48°32' W 123°01'2 3.6
2017-Oct-29 21:49N 48°35' W 123°01'0 1.2
2017-Oct-29 21:24N 48°34' W 123°01'1 2.1
2017-Oct-29 21:00N 48°34' W 123°00'1 1.5
2017-Oct-29 20:30N 48°33' W 123°00'1 1.2
2017-Oct-29 19:55N 48°32' W 123°01'0 0.0
2017-Oct-29 19:28N 48°32' W 123°01'0 0.0
2017-Oct-29 18:49N 48°32' W 123°01'0 0.0
2017-Oct-29 18:28N 48°32' W 123°01'0 0.2
2017-Oct-29 17:55N 48°32' W 123°01'2 3.7
2017-Oct-29 17:30N 48°33' W 122°59'3 6.1
2017-Oct-29 16:58N 48°34' W 122°54'2 4.9
2017-Oct-29 16:30N 48°33' W 122°51'  

Dump ship's entire track history